sensor_id;sensor_type;location;lat;lon;timestamp;P1;durP1;ratioP1;P2;durP2;ratioP2
26201;SDS011;13944;28.562;77.188;2022-08-03T00:00:45;33.30;;;17.27;;
26201;SDS011;13944;28.562;77.188;2022-08-03T00:03:12;43.72;;;19.33;;
26201;SDS011;13944;28.562;77.188;2022-08-03T00:05:38;39.55;;;19.00;;
26201;SDS011;13944;28.562;77.188;2022-08-03T00:08:05;42.63;;;20.48;;
26201;SDS011;13944;28.562;77.188;2022-08-03T00:10:31;41.35;;;20.42;;
26201;SDS011;13944;28.562;77.188;2022-08-03T00:12:58;52.08;;;19.90;;
26201;SDS011;13944;28.562;77.188;2022-08-03T00:15:24;47.85;;;21.05;;
26201;SDS011;13944;28.562;77.188;2022-08-03T00:17:51;42.33;;;20.08;;
26201;SDS011;13944;28.562;77.188;2022-08-03T00:20:18;56.72;;;21.67;;
26201;SDS011;13944;28.562;77.188;2022-08-03T00:22:44;50.22;;;20.80;;
26201;SDS011;13944;28.562;77.188;2022-08-03T00:25:11;50.47;;;20.92;;
26201;SDS011;13944;28.562;77.188;2022-08-03T00:27:37;41.13;;;21.20;;
26201;SDS011;13944;28.562;77.188;2022-08-03T00:30:04;37.45;;;19.60;;
26201;SDS011;13944;28.562;77.188;2022-08-03T00:32:30;39.33;;;20.58;;
26201;SDS011;13944;28.562;77.188;2022-08-03T00:34:57;39.85;;;20.65;;
26201;SDS011;13944;28.562;77.188;2022-08-03T00:37:23;47.45;;;21.60;;
26201;SDS011;13944;28.562;77.188;2022-08-03T00:39:50;46.03;;;20.52;;
26201;SDS011;13944;28.562;77.188;2022-08-03T00:42:16;47.00;;;21.10;;
26201;SDS011;13944;28.562;77.188;2022-08-03T00:44:43;43.60;;;20.98;;
26201;SDS011;13944;28.562;77.188;2022-08-03T00:47:10;59.00;;;22.73;;
26201;SDS011;13944;28.562;77.188;2022-08-03T00:49:37;61.00;;;22.42;;
26201;SDS011;13944;28.562;77.188;2022-08-03T00:52:04;54.10;;;24.27;;
26201;SDS011;13944;28.562;77.188;2022-08-03T00:54:31;54.50;;;26.63;;
26201;SDS011;13944;28.562;77.188;2022-08-03T00:56:58;60.83;;;26.13;;
26201;SDS011;13944;28.562;77.188;2022-08-03T00:59:25;48.88;;;22.70;;
26201;SDS011;13944;28.562;77.188;2022-08-03T01:01:52;45.00;;;23.75;;
26201;SDS011;13944;28.562;77.188;2022-08-03T01:04:18;82.95;;;25.98;;
26201;SDS011;13944;28.562;77.188;2022-08-03T01:06:48;53.28;;;24.08;;
26201;SDS011;13944;28.562;77.188;2022-08-03T01:14:31;47.55;;;23.58;;
26201;SDS011;13944;28.562;77.188;2022-08-03T01:17:01;39.95;;;21.88;;
26201;SDS011;13944;28.562;77.188;2022-08-03T01:19:48;49.75;;;23.30;;
26201;SDS011;13944;28.562;77.188;2022-08-03T01:30:12;48.40;;;25.83;;
26201;SDS011;13944;28.562;77.188;2022-08-03T01:33:01;50.70;;;28.45;;
26201;SDS011;13944;28.562;77.188;2022-08-03T01:35:27;48.90;;;27.83;;
26201;SDS011;13944;28.562;77.188;2022-08-03T01:38:00;40.80;;;25.60;;
26201;SDS011;13944;28.562;77.188;2022-08-03T01:40:27;41.15;;;27.70;;
26201;SDS011;13944;28.562;77.188;2022-08-03T01:42:55;43.90;;;25.08;;
26201;SDS011;13944;28.562;77.188;2022-08-03T01:45:22;52.80;;;26.70;;
26201;SDS011;13944;28.562;77.188;2022-08-03T01:47:50;48.50;;;25.40;;
26201;SDS011;13944;28.562;77.188;2022-08-03T01:50:21;49.60;;;26.75;;
26201;SDS011;13944;28.562;77.188;2022-08-03T01:52:49;50.95;;;27.30;;
26201;SDS011;13944;28.562;77.188;2022-08-03T01:55:16;48.58;;;25.58;;
26201;SDS011;13944;28.562;77.188;2022-08-03T01:57:44;46.80;;;25.30;;
26201;SDS011;13944;28.562;77.188;2022-08-03T02:00:11;51.35;;;24.67;;
26201;SDS011;13944;28.562;77.188;2022-08-03T02:02:38;48.00;;;25.33;;
26201;SDS011;13944;28.562;77.188;2022-08-03T02:05:06;44.38;;;25.08;;
26201;SDS011;13944;28.562;77.188;2022-08-03T02:07:34;52.97;;;26.02;;
26201;SDS011;13944;28.562;77.188;2022-08-03T02:10:01;42.10;;;22.92;;
26201;SDS011;13944;28.562;77.188;2022-08-03T02:12:29;43.08;;;23.38;;
26201;SDS011;13944;28.562;77.188;2022-08-03T02:14:56;41.63;;;21.85;;
26201;SDS011;13944;28.562;77.188;2022-08-03T02:17:25;49.63;;;22.90;;
26201;SDS011;13944;28.562;77.188;2022-08-03T02:19:52;59.85;;;23.90;;
26201;SDS011;13944;28.562;77.188;2022-08-03T02:22:19;54.70;;;24.48;;
26201;SDS011;13944;28.562;77.188;2022-08-03T02:24:47;48.90;;;24.17;;
26201;SDS011;13944;28.562;77.188;2022-08-03T02:27:21;44.92;;;22.40;;
26201;SDS011;13944;28.562;77.188;2022-08-03T02:29:50;45.42;;;23.83;;
26201;SDS011;13944;28.562;77.188;2022-08-03T02:32:19;41.95;;;23.42;;
26201;SDS011;13944;28.562;77.188;2022-08-03T02:34:48;58.08;;;23.67;;
26201;SDS011;13944;28.562;77.188;2022-08-03T02:37:17;41.97;;;22.60;;
26201;SDS011;13944;28.562;77.188;2022-08-03T02:39:44;51.35;;;22.50;;
26201;SDS011;13944;28.562;77.188;2022-08-03T02:42:12;50.88;;;22.77;;
26201;SDS011;13944;28.562;77.188;2022-08-03T02:44:39;45.15;;;23.65;;
26201;SDS011;13944;28.562;77.188;2022-08-03T02:47:11;46.75;;;23.85;;
26201;SDS011;13944;28.562;77.188;2022-08-03T02:49:40;44.58;;;22.98;;
26201;SDS011;13944;28.562;77.188;2022-08-03T02:52:10;40.53;;;22.83;;
26201;SDS011;13944;28.562;77.188;2022-08-03T02:54:37;46.30;;;24.30;;
26201;SDS011;13944;28.562;77.188;2022-08-03T02:57:06;51.53;;;23.48;;
26201;SDS011;13944;28.562;77.188;2022-08-03T02:59:33;44.22;;;21.67;;
26201;SDS011;13944;28.562;77.188;2022-08-03T03:02:00;47.35;;;22.52;;
26201;SDS011;13944;28.562;77.188;2022-08-03T03:04:27;41.45;;;21.00;;
26201;SDS011;13944;28.562;77.188;2022-08-03T03:06:55;38.50;;;20.55;;
26201;SDS011;13944;28.562;77.188;2022-08-03T03:09:22;44.72;;;20.35;;
26201;SDS011;13944;28.562;77.188;2022-08-03T03:11:49;37.75;;;19.48;;
26201;SDS011;13944;28.562;77.188;2022-08-03T03:14:17;41.13;;;20.20;;
26201;SDS011;13944;28.562;77.188;2022-08-03T03:16:44;34.70;;;21.13;;
26201;SDS011;13944;28.562;77.188;2022-08-03T03:19:12;46.72;;;21.48;;
26201;SDS011;13944;28.562;77.188;2022-08-03T03:21:39;39.50;;;20.25;;
26201;SDS011;13944;28.562;77.188;2022-08-03T03:24:05;46.08;;;19.25;;
26201;SDS011;13944;28.562;77.188;2022-08-03T03:26:33;37.13;;;19.92;;
26201;SDS011;13944;28.562;77.188;2022-08-03T03:29:00;41.22;;;21.52;;
26201;SDS011;13944;28.562;77.188;2022-08-03T03:31:27;33.88;;;20.42;;
26201;SDS011;13944;28.562;77.188;2022-08-03T03:33:55;58.63;;;37.00;;
26201;SDS011;13944;28.562;77.188;2022-08-03T03:36:22;53.20;;;26.30;;
26201;SDS011;13944;28.562;77.188;2022-08-03T03:38:49;46.55;;;22.98;;
26201;SDS011;13944;28.562;77.188;2022-08-03T03:41:15;52.95;;;25.85;;
26201;SDS011;13944;28.562;77.188;2022-08-03T03:43:42;48.47;;;22.35;;
26201;SDS011;13944;28.562;77.188;2022-08-03T03:46:11;42.85;;;21.73;;
26201;SDS011;13944;28.562;77.188;2022-08-03T03:48:38;43.78;;;20.08;;
26201;SDS011;13944;28.562;77.188;2022-08-03T03:51:04;40.15;;;20.70;;
26201;SDS011;13944;28.562;77.188;2022-08-03T03:53:32;34.17;;;19.25;;
26201;SDS011;13944;28.562;77.188;2022-08-03T03:55:58;43.70;;;19.00;;
26201;SDS011;13944;28.562;77.188;2022-08-03T03:58:25;35.90;;;19.80;;
26201;SDS011;13944;28.562;77.188;2022-08-03T04:00:51;39.33;;;19.52;;
26201;SDS011;13944;28.562;77.188;2022-08-03T04:03:18;31.08;;;19.00;;
26201;SDS011;13944;28.562;77.188;2022-08-03T04:05:45;33.47;;;19.95;;
26201;SDS011;13944;28.562;77.188;2022-08-03T04:08:30;41.13;;;21.37;;
26201;SDS011;13944;28.562;77.188;2022-08-03T04:11:19;34.88;;;20.30;;
26201;SDS011;13944;28.562;77.188;2022-08-03T04:13:48;41.63;;;20.52;;
26201;SDS011;13944;28.562;77.188;2022-08-03T04:16:16;42.28;;;21.15;;
26201;SDS011;13944;28.562;77.188;2022-08-03T04:18:43;38.13;;;20.88;;
26201;SDS011;13944;28.562;77.188;2022-08-03T04:21:12;37.65;;;20.45;;
26201;SDS011;13944;28.562;77.188;2022-08-03T04:23:40;35.00;;;20.02;;
26201;SDS011;13944;28.562;77.188;2022-08-03T04:26:08;36.05;;;19.98;;
26201;SDS011;13944;28.562;77.188;2022-08-03T04:28:36;38.53;;;18.40;;
26201;SDS011;13944;28.562;77.188;2022-08-03T04:31:04;31.02;;;16.50;;
26201;SDS011;13944;28.562;77.188;2022-08-03T04:33:32;28.73;;;16.38;;
26201;SDS011;13944;28.562;77.188;2022-08-03T04:36:00;33.15;;;14.45;;
26201;SDS011;13944;28.562;77.188;2022-08-03T04:38:27;28.70;;;14.20;;
26201;SDS011;13944;28.562;77.188;2022-08-03T04:40:54;27.88;;;14.60;;
26201;SDS011;13944;28.562;77.188;2022-08-03T04:43:21;40.15;;;18.13;;
26201;SDS011;13944;28.562;77.188;2022-08-03T04:45:48;43.35;;;24.02;;
26201;SDS011;13944;28.562;77.188;2022-08-03T04:48:15;50.67;;;26.48;;
26201;SDS011;13944;28.562;77.188;2022-08-03T04:50:42;42.53;;;24.98;;
26201;SDS011;13944;28.562;77.188;2022-08-03T04:53:08;57.53;;;26.50;;
26201;SDS011;13944;28.562;77.188;2022-08-03T04:55:35;57.67;;;25.85;;
26201;SDS011;13944;28.562;77.188;2022-08-03T04:58:02;49.17;;;25.48;;
26201;SDS011;13944;28.562;77.188;2022-08-03T05:00:28;45.58;;;24.52;;
26201;SDS011;13944;28.562;77.188;2022-08-03T05:02:55;44.38;;;25.05;;
26201;SDS011;13944;28.562;77.188;2022-08-03T05:05:22;41.92;;;24.40;;
26201;SDS011;13944;28.562;77.188;2022-08-03T05:07:48;46.30;;;27.52;;
26201;SDS011;13944;28.562;77.188;2022-08-03T05:10:15;51.00;;;26.85;;
26201;SDS011;13944;28.562;77.188;2022-08-03T05:12:42;49.73;;;28.40;;
26201;SDS011;13944;28.562;77.188;2022-08-03T05:15:09;53.72;;;27.88;;
26201;SDS011;13944;28.562;77.188;2022-08-03T05:17:36;49.92;;;27.20;;
26201;SDS011;13944;28.562;77.188;2022-08-03T05:20:02;56.63;;;28.88;;
26201;SDS011;13944;28.562;77.188;2022-08-03T05:22:29;47.97;;;26.85;;
26201;SDS011;13944;28.562;77.188;2022-08-03T05:24:56;49.50;;;27.27;;
26201;SDS011;13944;28.562;77.188;2022-08-03T05:27:23;51.45;;;28.05;;
26201;SDS011;13944;28.562;77.188;2022-08-03T05:29:49;49.70;;;26.55;;
26201;SDS011;13944;28.562;77.188;2022-08-03T05:32:16;45.58;;;25.17;;
26201;SDS011;13944;28.562;77.188;2022-08-03T05:34:43;38.30;;;23.38;;
26201;SDS011;13944;28.562;77.188;2022-08-03T05:37:10;39.53;;;22.77;;
26201;SDS011;13944;28.562;77.188;2022-08-03T05:39:36;36.70;;;21.88;;
26201;SDS011;13944;28.562;77.188;2022-08-03T05:42:03;42.90;;;21.52;;
26201;SDS011;13944;28.562;77.188;2022-08-03T05:44:30;41.20;;;19.58;;
26201;SDS011;13944;28.562;77.188;2022-08-03T05:46:56;40.53;;;19.33;;
26201;SDS011;13944;28.562;77.188;2022-08-03T05:49:23;33.72;;;18.15;;
26201;SDS011;13944;28.562;77.188;2022-08-03T05:51:50;31.40;;;16.98;;
26201;SDS011;13944;28.562;77.188;2022-08-03T05:54:16;36.10;;;17.52;;
26201;SDS011;13944;28.562;77.188;2022-08-03T05:56:43;32.60;;;16.67;;
26201;SDS011;13944;28.562;77.188;2022-08-03T05:59:09;35.35;;;18.23;;
26201;SDS011;13944;28.562;77.188;2022-08-03T06:01:36;34.03;;;15.70;;
26201;SDS011;13944;28.562;77.188;2022-08-03T06:04:02;36.35;;;16.08;;
26201;SDS011;13944;28.562;77.188;2022-08-03T06:06:29;31.77;;;14.75;;
26201;SDS011;13944;28.562;77.188;2022-08-03T06:08:55;31.60;;;20.45;;
26201;SDS011;13944;28.562;77.188;2022-08-03T06:11:22;40.28;;;24.63;;
26201;SDS011;13944;28.562;77.188;2022-08-03T06:13:49;41.65;;;27.05;;
26201;SDS011;13944;28.562;77.188;2022-08-03T06:16:15;37.78;;;26.92;;
26201;SDS011;13944;28.562;77.188;2022-08-03T06:18:42;39.47;;;28.73;;
26201;SDS011;13944;28.562;77.188;2022-08-03T06:21:08;43.05;;;33.67;;
26201;SDS011;13944;28.562;77.188;2022-08-03T06:23:35;47.20;;;31.95;;
26201;SDS011;13944;28.562;77.188;2022-08-03T06:26:01;48.13;;;33.30;;
26201;SDS011;13944;28.562;77.188;2022-08-03T06:28:28;50.50;;;35.17;;
26201;SDS011;13944;28.562;77.188;2022-08-03T06:30:55;53.25;;;36.78;;
26201;SDS011;13944;28.562;77.188;2022-08-03T06:33:21;48.55;;;36.00;;
26201;SDS011;13944;28.562;77.188;2022-08-03T06:35:50;56.75;;;41.22;;
26201;SDS011;13944;28.562;77.188;2022-08-03T06:38:17;52.58;;;40.22;;
26201;SDS011;13944;28.562;77.188;2022-08-03T06:40:43;49.05;;;40.08;;
26201;SDS011;13944;28.562;77.188;2022-08-03T06:43:17;46.25;;;36.78;;
26201;SDS011;13944;28.562;77.188;2022-08-03T06:45:44;41.50;;;36.05;;
26201;SDS011;13944;28.562;77.188;2022-08-03T06:48:11;43.70;;;35.95;;
26201;SDS011;13944;28.562;77.188;2022-08-03T06:50:38;43.88;;;35.08;;
26201;SDS011;13944;28.562;77.188;2022-08-03T06:53:05;49.45;;;37.33;;
26201;SDS011;13944;28.562;77.188;2022-08-03T06:55:33;47.67;;;37.78;;
26201;SDS011;13944;28.562;77.188;2022-08-03T06:57:59;43.70;;;37.70;;
26201;SDS011;13944;28.562;77.188;2022-08-03T07:00:26;50.75;;;36.83;;
26201;SDS011;13944;28.562;77.188;2022-08-03T07:02:53;48.92;;;37.78;;
26201;SDS011;13944;28.562;77.188;2022-08-03T07:05:19;50.28;;;39.47;;
26201;SDS011;13944;28.562;77.188;2022-08-03T07:07:46;44.08;;;36.10;;
26201;SDS011;13944;28.562;77.188;2022-08-03T07:10:13;48.30;;;39.10;;
26201;SDS011;13944;28.562;77.188;2022-08-03T07:12:40;49.00;;;37.30;;
26201;SDS011;13944;28.562;77.188;2022-08-03T07:15:06;44.72;;;35.45;;
26201;SDS011;13944;28.562;77.188;2022-08-03T07:17:34;44.35;;;35.03;;
26201;SDS011;13944;28.562;77.188;2022-08-03T07:20:02;48.03;;;36.65;;
26201;SDS011;13944;28.562;77.188;2022-08-03T07:22:30;45.55;;;35.80;;
26201;SDS011;13944;28.562;77.188;2022-08-03T07:24:56;40.63;;;33.95;;
26201;SDS011;13944;28.562;77.188;2022-08-03T07:27:23;43.13;;;33.88;;
26201;SDS011;13944;28.562;77.188;2022-08-03T07:29:51;43.60;;;34.47;;
26201;SDS011;13944;28.562;77.188;2022-08-03T07:32:19;45.55;;;35.47;;
26201;SDS011;13944;28.562;77.188;2022-08-03T07:34:46;50.90;;;40.17;;
26201;SDS011;13944;28.562;77.188;2022-08-03T07:37:12;54.78;;;41.08;;
26201;SDS011;13944;28.562;77.188;2022-08-03T07:39:39;52.97;;;43.22;;
26201;SDS011;13944;28.562;77.188;2022-08-03T07:42:05;57.78;;;44.63;;
26201;SDS011;13944;28.562;77.188;2022-08-03T07:44:32;59.00;;;44.95;;
26201;SDS011;13944;28.562;77.188;2022-08-03T07:46:58;63.17;;;46.13;;
26201;SDS011;13944;28.562;77.188;2022-08-03T07:49:25;56.97;;;43.83;;
26201;SDS011;13944;28.562;77.188;2022-08-03T07:51:51;49.17;;;40.45;;
26201;SDS011;13944;28.562;77.188;2022-08-03T07:54:36;52.65;;;41.50;;
26201;SDS011;13944;28.562;77.188;2022-08-03T07:57:03;53.25;;;41.38;;
26201;SDS011;13944;28.562;77.188;2022-08-03T07:59:29;53.38;;;44.15;;
26201;SDS011;13944;28.562;77.188;2022-08-03T08:01:56;53.00;;;44.50;;
26201;SDS011;13944;28.562;77.188;2022-08-03T08:04:23;57.58;;;43.67;;
26201;SDS011;13944;28.562;77.188;2022-08-03T08:06:49;52.97;;;43.28;;
26201;SDS011;13944;28.562;77.188;2022-08-03T08:09:16;53.67;;;42.55;;
26201;SDS011;13944;28.562;77.188;2022-08-03T08:11:43;57.22;;;41.92;;
26201;SDS011;13944;28.562;77.188;2022-08-03T08:14:09;48.17;;;39.50;;
26201;SDS011;13944;28.562;77.188;2022-08-03T08:16:36;55.65;;;41.90;;
26201;SDS011;13944;28.562;77.188;2022-08-03T08:19:03;56.60;;;42.45;;
26201;SDS011;13944;28.562;77.188;2022-08-03T08:21:30;51.40;;;38.53;;
26201;SDS011;13944;28.562;77.188;2022-08-03T08:23:56;46.85;;;37.33;;
26201;SDS011;13944;28.562;77.188;2022-08-03T08:26:24;44.65;;;37.92;;
26201;SDS011;13944;28.562;77.188;2022-08-03T08:28:50;62.38;;;43.85;;
26201;SDS011;13944;28.562;77.188;2022-08-03T08:31:17;60.53;;;43.25;;
26201;SDS011;13944;28.562;77.188;2022-08-03T08:33:44;68.10;;;48.13;;
26201;SDS011;13944;28.562;77.188;2022-08-03T08:36:10;63.15;;;42.40;;
26201;SDS011;13944;28.562;77.188;2022-08-03T08:38:37;62.97;;;42.33;;
26201;SDS011;13944;28.562;77.188;2022-08-03T08:41:06;61.85;;;43.47;;
26201;SDS011;13944;28.562;77.188;2022-08-03T08:43:32;52.70;;;40.30;;
26201;SDS011;13944;28.562;77.188;2022-08-03T08:45:59;60.25;;;41.60;;
26201;SDS011;13944;28.562;77.188;2022-08-03T08:48:26;57.38;;;37.80;;
26201;SDS011;13944;28.562;77.188;2022-08-03T08:50:53;50.75;;;34.05;;
26201;SDS011;13944;28.562;77.188;2022-08-03T08:53:21;48.88;;;34.75;;
26201;SDS011;13944;28.562;77.188;2022-08-03T08:55:48;56.05;;;33.85;;
26201;SDS011;13944;28.562;77.188;2022-08-03T08:58:15;49.92;;;31.88;;
26201;SDS011;13944;28.562;77.188;2022-08-03T09:00:46;43.40;;;28.05;;
26201;SDS011;13944;28.562;77.188;2022-08-03T09:03:12;43.95;;;27.83;;
26201;SDS011;13944;28.562;77.188;2022-08-03T09:05:43;36.50;;;28.23;;
26201;SDS011;13944;28.562;77.188;2022-08-03T09:08:11;46.15;;;33.38;;
26201;SDS011;13944;28.562;77.188;2022-08-03T09:10:38;44.20;;;32.03;;
26201;SDS011;13944;28.562;77.188;2022-08-03T09:13:04;47.88;;;31.60;;
26201;SDS011;13944;28.562;77.188;2022-08-03T09:15:33;55.58;;;32.55;;
26201;SDS011;13944;28.562;77.188;2022-08-03T09:18:00;56.75;;;32.17;;
26201;SDS011;13944;28.562;77.188;2022-08-03T09:20:28;52.20;;;30.83;;
26201;SDS011;13944;28.562;77.188;2022-08-03T09:25:34;43.97;;;27.52;;
26201;SDS011;13944;28.562;77.188;2022-08-03T09:28:09;56.92;;;29.50;;
26201;SDS011;13944;28.562;77.188;2022-08-03T09:30:39;47.55;;;30.92;;
26201;SDS011;13944;28.562;77.188;2022-08-03T09:33:07;48.92;;;29.30;;
26201;SDS011;13944;28.562;77.188;2022-08-03T09:35:44;50.47;;;30.08;;
26201;SDS011;13944;28.562;77.188;2022-08-03T09:38:12;45.55;;;28.73;;
26201;SDS011;13944;28.562;77.188;2022-08-03T09:40:39;44.75;;;30.42;;
26201;SDS011;13944;28.562;77.188;2022-08-03T09:43:06;63.83;;;40.53;;
26201;SDS011;13944;28.562;77.188;2022-08-03T09:45:41;61.67;;;40.22;;
26201;SDS011;13944;28.562;77.188;2022-08-03T09:48:30;76.75;;;51.75;;
26201;SDS011;13944;28.562;77.188;2022-08-03T09:50:56;69.15;;;45.10;;
26201;SDS011;13944;28.562;77.188;2022-08-03T09:53:23;67.82;;;48.40;;
26201;SDS011;13944;28.562;77.188;2022-08-03T09:58:16;77.32;;;50.17;;
26201;SDS011;13944;28.562;77.188;2022-08-03T10:00:53;74.82;;;52.17;;
26201;SDS011;13944;28.562;77.188;2022-08-03T10:03:20;68.18;;;49.53;;
26201;SDS011;13944;28.562;77.188;2022-08-03T10:05:47;74.22;;;50.00;;
26201;SDS011;13944;28.562;77.188;2022-08-03T10:08:14;72.25;;;50.28;;
26201;SDS011;13944;28.562;77.188;2022-08-03T10:10:43;65.22;;;46.97;;
26201;SDS011;13944;28.562;77.188;2022-08-03T10:13:14;65.32;;;47.20;;
26201;SDS011;13944;28.562;77.188;2022-08-03T10:15:41;64.55;;;43.88;;
26201;SDS011;13944;28.562;77.188;2022-08-03T10:18:08;63.58;;;41.42;;
26201;SDS011;13944;28.562;77.188;2022-08-03T10:21:08;48.85;;;37.45;;
26201;SDS011;13944;28.562;77.188;2022-08-03T10:23:27;54.22;;;36.97;;
26201;SDS011;13944;28.562;77.188;2022-08-03T10:25:56;57.53;;;40.53;;
26201;SDS011;13944;28.562;77.188;2022-08-03T10:28:23;53.42;;;37.60;;
26201;SDS011;13944;28.562;77.188;2022-08-03T10:30:51;57.42;;;35.08;;
26201;SDS011;13944;28.562;77.188;2022-08-03T10:33:19;50.42;;;33.35;;
26201;SDS011;13944;28.562;77.188;2022-08-03T10:35:47;53.80;;;33.80;;
26201;SDS011;13944;28.562;77.188;2022-08-03T10:38:17;50.42;;;32.92;;
26201;SDS011;13944;28.562;77.188;2022-08-03T10:40:44;50.95;;;34.67;;
26201;SDS011;13944;28.562;77.188;2022-08-03T10:43:15;49.80;;;33.55;;
26201;SDS011;13944;28.562;77.188;2022-08-03T10:45:43;54.00;;;33.85;;
26201;SDS011;13944;28.562;77.188;2022-08-03T10:48:11;57.28;;;35.00;;
26201;SDS011;13944;28.562;77.188;2022-08-03T10:50:38;60.28;;;36.45;;
26201;SDS011;13944;28.562;77.188;2022-08-03T10:53:08;54.85;;;35.05;;
26201;SDS011;13944;28.562;77.188;2022-08-03T10:55:36;61.10;;;36.85;;
26201;SDS011;13944;28.562;77.188;2022-08-03T10:59:03;54.45;;;37.80;;
26201;SDS011;13944;28.562;77.188;2022-08-03T11:01:10;56.47;;;37.33;;
26201;SDS011;13944;28.562;77.188;2022-08-03T11:04:22;57.30;;;38.10;;
26201;SDS011;13944;28.562;77.188;2022-08-03T11:06:24;65.15;;;40.63;;
26201;SDS011;13944;28.562;77.188;2022-08-03T11:11:36;54.90;;;34.92;;
26201;SDS011;13944;28.562;77.188;2022-08-03T11:16:37;51.92;;;33.97;;
26201;SDS011;13944;28.562;77.188;2022-08-03T11:19:08;51.38;;;32.33;;
26201;SDS011;13944;28.562;77.188;2022-08-03T11:29:54;49.05;;;31.08;;
26201;SDS011;13944;28.562;77.188;2022-08-03T11:43:05;42.40;;;31.75;;
26201;SDS011;13944;28.562;77.188;2022-08-03T11:45:32;44.78;;;33.78;;
26201;SDS011;13944;28.562;77.188;2022-08-03T11:48:01;44.03;;;34.20;;
26201;SDS011;13944;28.562;77.188;2022-08-03T11:50:34;47.88;;;34.38;;
26201;SDS011;13944;28.562;77.188;2022-08-03T11:53:04;50.40;;;35.28;;
26201;SDS011;13944;28.562;77.188;2022-08-03T11:55:30;48.13;;;35.13;;
26201;SDS011;13944;28.562;77.188;2022-08-03T11:58:00;45.47;;;34.75;;
26201;SDS011;13944;28.562;77.188;2022-08-03T12:00:28;48.38;;;35.70;;
26201;SDS011;13944;28.562;77.188;2022-08-03T12:05:31;44.85;;;33.28;;
26201;SDS011;13944;28.562;77.188;2022-08-03T12:07:57;49.45;;;34.42;;
26201;SDS011;13944;28.562;77.188;2022-08-03T12:10:24;47.15;;;36.72;;
26201;SDS011;13944;28.562;77.188;2022-08-03T12:12:54;46.28;;;35.53;;
26201;SDS011;13944;28.562;77.188;2022-08-03T12:15:29;53.20;;;38.60;;
26201;SDS011;13944;28.562;77.188;2022-08-03T12:17:56;46.38;;;35.55;;
26201;SDS011;13944;28.562;77.188;2022-08-03T12:20:23;49.70;;;37.30;;
26201;SDS011;13944;28.562;77.188;2022-08-03T12:22:50;50.47;;;35.95;;
26201;SDS011;13944;28.562;77.188;2022-08-03T12:25:25;49.22;;;36.88;;
26201;SDS011;13944;28.562;77.188;2022-08-03T12:27:52;47.67;;;36.03;;
26201;SDS011;13944;28.562;77.188;2022-08-03T12:30:19;48.30;;;35.63;;
26201;SDS011;13944;28.562;77.188;2022-08-03T12:32:45;48.47;;;36.70;;
26201;SDS011;13944;28.562;77.188;2022-08-03T12:35:22;51.83;;;36.20;;
26201;SDS011;13944;28.562;77.188;2022-08-03T12:37:49;50.40;;;36.63;;
26201;SDS011;13944;28.562;77.188;2022-08-03T12:40:25;46.83;;;37.20;;
26201;SDS011;13944;28.562;77.188;2022-08-03T12:42:52;53.78;;;37.25;;
26201;SDS011;13944;28.562;77.188;2022-08-03T12:45:26;55.67;;;39.33;;
26201;SDS011;13944;28.562;77.188;2022-08-03T12:47:54;54.30;;;38.83;;
26201;SDS011;13944;28.562;77.188;2022-08-03T12:50:28;53.50;;;38.60;;
26201;SDS011;13944;28.562;77.188;2022-08-03T12:52:55;59.60;;;40.03;;
26201;SDS011;13944;28.562;77.188;2022-08-03T12:55:22;64.43;;;43.30;;
26201;SDS011;13944;28.562;77.188;2022-08-03T12:57:49;60.70;;;40.50;;
26201;SDS011;13944;28.562;77.188;2022-08-03T13:00:16;63.50;;;42.17;;
26201;SDS011;13944;28.562;77.188;2022-08-03T13:02:43;67.50;;;41.25;;
26201;SDS011;13944;28.562;77.188;2022-08-03T13:05:11;69.97;;;41.60;;
26201;SDS011;13944;28.562;77.188;2022-08-03T13:07:44;64.03;;;42.25;;
26201;SDS011;13944;28.562;77.188;2022-08-03T13:10:11;61.13;;;42.72;;
26201;SDS011;13944;28.562;77.188;2022-08-03T13:12:45;57.67;;;41.72;;
26201;SDS011;13944;28.562;77.188;2022-08-03T13:15:12;64.35;;;41.67;;
26201;SDS011;13944;28.562;77.188;2022-08-03T13:17:38;62.10;;;42.83;;
26201;SDS011;13944;28.562;77.188;2022-08-03T13:20:05;59.88;;;43.33;;
26201;SDS011;13944;28.562;77.188;2022-08-03T13:22:32;54.80;;;41.05;;
26201;SDS011;13944;28.562;77.188;2022-08-03T13:24:58;62.22;;;40.78;;
26201;SDS011;13944;28.562;77.188;2022-08-03T13:27:26;75.20;;;47.05;;
26201;SDS011;13944;28.562;77.188;2022-08-03T13:29:53;65.20;;;44.63;;
26201;SDS011;13944;28.562;77.188;2022-08-03T13:32:20;62.50;;;44.65;;
26201;SDS011;13944;28.562;77.188;2022-08-03T13:34:47;66.03;;;47.70;;
26201;SDS011;13944;28.562;77.188;2022-08-03T13:37:14;69.78;;;44.90;;
26201;SDS011;13944;28.562;77.188;2022-08-03T13:39:41;67.93;;;46.70;;
26201;SDS011;13944;28.562;77.188;2022-08-03T13:42:07;70.40;;;46.95;;
26201;SDS011;13944;28.562;77.188;2022-08-03T13:44:34;71.00;;;50.92;;
26201;SDS011;13944;28.562;77.188;2022-08-03T13:47:03;69.70;;;48.50;;
26201;SDS011;13944;28.562;77.188;2022-08-03T13:49:30;67.78;;;48.88;;
26201;SDS011;13944;28.562;77.188;2022-08-03T13:51:56;88.72;;;52.60;;
26201;SDS011;13944;28.562;77.188;2022-08-03T13:54:23;72.18;;;50.63;;
26201;SDS011;13944;28.562;77.188;2022-08-03T13:56:50;69.55;;;49.50;;
26201;SDS011;13944;28.562;77.188;2022-08-03T13:59:22;76.25;;;50.92;;
26201;SDS011;13944;28.562;77.188;2022-08-03T14:01:50;79.32;;;53.63;;
26201;SDS011;13944;28.562;77.188;2022-08-03T14:04:17;77.40;;;52.50;;
26201;SDS011;13944;28.562;77.188;2022-08-03T14:06:43;75.60;;;54.25;;
26201;SDS011;13944;28.562;77.188;2022-08-03T14:09:10;90.63;;;52.97;;
26201;SDS011;13944;28.562;77.188;2022-08-03T14:11:38;71.78;;;51.97;;
26201;SDS011;13944;28.562;77.188;2022-08-03T14:14:04;73.18;;;49.70;;
26201;SDS011;13944;28.562;77.188;2022-08-03T14:16:31;74.13;;;49.90;;
26201;SDS011;13944;28.562;77.188;2022-08-03T14:18:57;76.93;;;50.20;;
26201;SDS011;13944;28.562;77.188;2022-08-03T14:21:24;86.88;;;51.70;;
26201;SDS011;13944;28.562;77.188;2022-08-03T14:23:50;71.20;;;50.80;;
26201;SDS011;13944;28.562;77.188;2022-08-03T14:26:17;78.68;;;49.95;;
26201;SDS011;13944;28.562;77.188;2022-08-03T14:28:44;75.18;;;50.03;;
26201;SDS011;13944;28.562;77.188;2022-08-03T14:31:11;86.25;;;53.22;;
26201;SDS011;13944;28.562;77.188;2022-08-03T14:33:37;74.55;;;51.47;;
26201;SDS011;13944;28.562;77.188;2022-08-03T14:36:04;87.50;;;52.63;;
26201;SDS011;13944;28.562;77.188;2022-08-03T14:38:31;76.82;;;51.28;;
26201;SDS011;13944;28.562;77.188;2022-08-03T14:40:57;76.45;;;48.42;;
26201;SDS011;13944;28.562;77.188;2022-08-03T14:43:24;69.25;;;49.70;;
26201;SDS011;13944;28.562;77.188;2022-08-03T14:45:51;78.50;;;49.72;;
26201;SDS011;13944;28.562;77.188;2022-08-03T14:48:18;73.32;;;49.50;;
26201;SDS011;13944;28.562;77.188;2022-08-03T14:50:45;72.35;;;50.35;;
26201;SDS011;13944;28.562;77.188;2022-08-03T14:53:12;80.47;;;51.78;;
26201;SDS011;13944;28.562;77.188;2022-08-03T14:55:39;77.18;;;53.10;;
26201;SDS011;13944;28.562;77.188;2022-08-03T14:58:05;85.18;;;53.67;;